Time;durP1;ratioP1;P1;durP2;ratioP2;P2;SDS_P1;SDS_P2;PMS_P1;PMS_P2;Temp;Humidity;BMP_temperature;BMP_pressure;BME280_temperature;BME280_humidity;BME280_pressure;Samples;Min_cycle;Max_cycle;Signal;HPM_P1;HPM_P2
2024/02/22 00:01:50;;;;;;;;;;;;;;;18.57;34.17;101406.98;102935;1292;61482;-80
2024/02/22 00:04:16;;;;;;;;;;;;;;;18.57;34.23;101406.27;102719;1294;61456;-80
2024/02/22 00:06:42;;;;;;;;;;;;;;;18.57;34.15;101402.70;103055;1293;62433;-80
2024/02/22 00:09:08;;;;;;;;;;;;;;;18.57;34.13;101395.23;102698;1294;61549;-79
2024/02/22 00:11:33;;;;;;;;;;;;;;;18.56;34.18;101394.69;102742;1294;61839;-82
2024/02/22 00:13:59;;;;;;;;;;;;;;;18.56;34.17;101391.85;102976;1294;61457;-80
2024/02/22 00:16:24;;;;;;;;;;;;;;;18.56;34.25;101391.85;102730;1294;61335;-80
2024/02/22 00:18:50;;;;;;;;;;;;;;;18.56;34.27;101393.45;102926;1294;61419;-80
2024/02/22 00:21:15;;;;;;;;;;;;;;;18.55;34.17;101388.34;102743;1290;62359;-80
2024/02/22 00:23:41;;;;;;;;;;;;;;;18.55;34.10;101387.63;102704;1295;61841;-81
2024/02/22 00:26:06;;;;;;;;;;;;;;;18.55;34.23;101388.53;102896;1290;62411;-80
2024/02/22 00:28:32;;;;;;;;;;;;;;;18.55;34.18;101384.08;102881;1294;61772;-79
2024/02/22 00:30:57;;;;;;;;;;;;;;;18.55;34.19;101374.81;102874;1294;61462;-79
2024/02/22 00:33:23;;;;;;;;;;;;;;;18.55;34.14;101371.25;102874;1295;61794;-83
2024/02/22 00:35:49;;;;;;;;;;;;;;;18.54;34.22;101364.69;102861;1304;61424;-81
2024/02/22 00:38:14;;;;;;;;;;;;;;;18.54;34.28;101358.27;102784;1295;61723;-83
2024/02/22 00:40:40;;;;;;;;;;;;;;;18.54;34.27;101356.67;102691;1289;62664;-81
2024/02/22 00:43:08;;;;;;;;;;;;;;;18.53;34.25;101351.54;102827;1294;61412;-80
2024/02/22 00:45:34;;;;;;;;;;;;;;;18.53;34.26;101352.98;102831;1292;74450;-81
2024/02/22 00:48:00;;;;;;;;;;;;;;;18.53;34.10;101350.48;102709;1295;61322;-80
2024/02/22 00:50:29;;;;;;;;;;;;;;;18.53;34.19;101355.30;102825;1294;61377;-80
2024/02/22 00:53:01;;;;;;;;;;;;;;;18.53;34.25;101354.23;102689;1294;73390;-82
2024/02/22 00:55:26;;;;;;;;;;;;;;;18.53;34.22;101351.02;102678;1299;61495;-80
2024/02/22 00:57:53;;;;;;;;;;;;;;;18.53;34.19;101356.39;102714;1289;61858;-81
2024/02/22 01:00:18;;;;;;;;;;;;;;;18.53;34.28;101359.23;103042;1295;61357;-80
2024/02/22 01:02:44;;;;;;;;;;;;;;;18.53;34.21;101356.04;102824;1295;62413;-82
2024/02/22 01:05:09;;;;;;;;;;;;;;;18.52;34.20;101353.03;102754;1295;61367;-79
2024/02/22 01:07:35;;;;;;;;;;;;;;;18.52;34.32;101358.55;102751;1295;61457;-81
2024/02/22 01:10:00;;;;;;;;;;;;;;;18.52;34.25;101357.66;103046;1289;62281;-81
2024/02/22 01:12:26;;;;;;;;;;;;;;;18.52;34.26;101358.58;102813;1294;61439;-78
2024/02/22 01:14:51;;;;;;;;;;;;;;;18.52;34.30;101355.89;102793;1292;62382;-83
2024/02/22 01:17:17;;;;;;;;;;;;;;;18.52;34.31;101350.56;102743;1295;61360;-80
2024/02/22 01:19:45;;;;;;;;;;;;;;;18.51;34.24;101345.60;102688;1292;74516;-80
2024/02/22 01:22:11;;;;;;;;;;;;;;;18.52;34.25;101341.30;102833;1289;61282;-82
2024/02/22 01:24:36;;;;;;;;;;;;;;;18.52;34.35;101343.25;102919;1294;62150;-80
2024/02/22 01:27:02;;;;;;;;;;;;;;;18.51;34.34;101342.76;102667;1292;62514;-83
2024/02/22 01:29:27;;;;;;;;;;;;;;;18.50;34.25;101340.64;102690;1295;61387;-79
2024/02/22 01:31:53;;;;;;;;;;;;;;;18.51;34.21;101332.43;102939;1290;62493;-80
2024/02/22 01:34:19;;;;;;;;;;;;;;;18.51;34.31;101335.83;102852;1294;61420;-80
2024/02/22 01:36:44;;;;;;;;;;;;;;;18.50;34.33;101335.13;102802;1289;62586;-81
2024/02/22 01:39:11;;;;;;;;;;;;;;;18.50;34.32;101331.77;102774;1290;61390;-80
2024/02/22 01:41:37;;;;;;;;;;;;;;;18.50;34.34;101343.88;102752;1294;61454;-79
2024/02/22 01:44:03;;;;;;;;;;;;;;;18.50;34.29;101346.20;102788;1290;61722;-82
2024/02/22 01:46:29;;;;;;;;;;;;;;;18.50;34.29;101348.16;102681;1290;61416;-79
2024/02/22 01:48:54;;;;;;;;;;;;;;;18.50;34.35;101347.98;102731;1292;61401;-80
2024/02/22 01:51:20;;;;;;;;;;;;;;;18.50;34.35;101335.52;102849;1291;61863;-81
2024/02/22 01:53:49;;;;;;;;;;;;;;;18.49;34.35;101327.33;102786;1294;61330;-79
2024/02/22 01:56:14;;;;;;;;;;;;;;;18.49;34.29;101323.44;102819;1291;61827;-81
2024/02/22 01:58:40;;;;;;;;;;;;;;;18.49;34.40;101327.38;102819;1294;61302;-81
2024/02/22 02:01:06;;;;;;;;;;;;;;;18.49;34.38;101335.75;102855;1291;61414;-80
2024/02/22 02:03:32;;;;;;;;;;;;;;;18.48;34.36;101342.18;102857;1293;61315;-80
2024/02/22 02:05:57;;;;;;;;;;;;;;;18.48;34.40;101340.58;102688;1294;61890;-79
2024/02/22 02:08:23;;;;;;;;;;;;;;;18.48;34.37;101333.30;102735;1290;61442;-84
2024/02/22 02:10:49;;;;;;;;;;;;;;;18.48;34.37;101334.73;102812;1291;62164;-80
2024/02/22 02:13:14;;;;;;;;;;;;;;;18.47;34.35;101338.48;102977;1293;61387;-80
2024/02/22 02:15:41;;;;;;;;;;;;;;;18.48;34.45;101343.12;102717;1290;62627;-80
2024/02/22 02:18:06;;;;;;;;;;;;;;;18.47;34.43;101343.67;102875;1294;61494;-80
2024/02/22 02:21:04;;;;;;;;;;;;;;;18.47;34.31;101341.19;102788;1291;61399;-80
2024/02/22 02:23:47;;;;;;;;;;;;;;;18.47;34.35;101336.19;102630;1294;73497;-79
2024/02/22 02:26:14;;;;;;;;;;;;;;;18.47;34.35;101340.13;102801;1291;75513;-79
2024/02/22 02:28:40;;;;;;;;;;;;;;;18.46;34.38;101335.16;102703;1293;61313;-81
2024/02/22 02:31:05;;;;;;;;;;;;;;;18.47;34.40;101333.71;102829;1290;61446;-80
2024/02/22 02:33:31;;;;;;;;;;;;;;;18.47;34.48;101324.63;102842;1294;62508;-79
2024/02/22 02:35:56;;;;;;;;;;;;;;;18.46;34.36;101326.10;102965;1293;61421;-79
2024/02/22 02:38:22;;;;;;;;;;;;;;;18.46;34.42;101330.54;103029;1290;61421;-81
2024/02/22 02:40:47;;;;;;;;;;;;;;;18.46;34.33;101338.02;102700;1290;61342;-80
2024/02/22 02:43:13;;;;;;;;;;;;;;;18.46;34.47;101334.11;102692;1297;61411;-82
2024/02/22 02:45:38;;;;;;;;;;;;;;;18.46;34.49;101334.30;102695;1291;61336;-79
2024/02/22 02:48:05;;;;;;;;;;;;;;;18.45;34.52;101327.56;102833;1291;62036;-81
2024/02/22 02:50:30;;;;;;;;;;;;;;;18.45;34.44;101324.35;102689;1294;61384;-80
2024/02/22 02:52:56;;;;;;;;;;;;;;;18.45;34.43;101328.30;102795;1294;61369;-80
2024/02/22 02:55:23;;;;;;;;;;;;;;;18.45;34.40;101327.95;103010;1295;62034;-81
2024/02/22 02:57:49;;;;;;;;;;;;;;;18.44;34.40;101326.89;102685;1292;61371;-80
2024/02/22 03:00:15;;;;;;;;;;;;;;;18.44;34.52;101324.93;102812;1289;74445;-81
2024/02/22 03:02:41;;;;;;;;;;;;;;;18.44;34.42;101322.61;102556;1297;61507;-80
2024/02/22 03:05:07;;;;;;;;;;;;;;;18.43;34.47;101326.55;102583;1294;61513;-80
2024/02/22 03:07:33;;;;;;;;;;;;;;;18.44;34.43;101322.45;102692;1297;62306;-82
2024/02/22 03:09:58;;;;;;;;;;;;;;;18.43;34.38;101323.18;102492;1294;61447;-80
2024/02/22 03:12:24;;;;;;;;;;;;;;;18.43;34.34;101321.39;102632;1294;61359;-81
2024/02/22 03:14:50;;;;;;;;;;;;;;;18.43;34.41;101319.98;102682;1297;61412;-79
2024/02/22 03:17:21;;;;;;;;;;;;;;;18.43;34.38;101318.38;102617;1293;61337;-80
2024/02/22 03:19:46;;;;;;;;;;;;;;;18.43;34.32;101323.74;102574;1294;73474;-80
2024/02/22 03:22:14;;;;;;;;;;;;;;;18.42;34.44;101329.65;102691;1297;62490;-79
2024/02/22 03:24:39;;;;;;;;;;;;;;;18.42;34.22;101328.76;102547;1295;61415;-79
2024/02/22 03:27:10;;;;;;;;;;;;;;;18.42;34.36;101328.06;102609;1294;61497;-82
2024/02/22 03:29:37;;;;;;;;;;;;;;;18.42;34.42;101332.70;102625;1293;72604;-79
2024/02/22 03:32:03;;;;;;;;;;;;;;;18.42;34.39;101335.93;102650;1297;62372;-81
2024/02/22 03:34:29;;;;;;;;;;;;;;;18.41;34.32;101334.52;102637;1294;62181;-80
2024/02/22 03:36:56;;;;;;;;;;;;;;;18.41;34.34;101332.56;102854;1290;61500;-82
2024/02/22 03:39:21;;;;;;;;;;;;;;;18.41;34.33;101336.12;102785;1291;61407;-79
2024/02/22 03:41:47;;;;;;;;;;;;;;;18.41;34.35;101335.22;102678;1294;61441;-80
2024/02/22 03:44:14;;;;;;;;;;;;;;;18.41;34.39;101333.10;102847;1291;62410;-82
2024/02/22 03:46:50;;;;;;;;;;;;;;;18.41;34.47;101331.32;102757;1292;61447;-80
2024/02/22 03:49:15;;;;;;;;;;;;;;;18.41;34.39;101330.96;102910;1291;72709;-81
2024/02/22 03:51:42;;;;;;;;;;;;;;;18.41;34.28;101330.27;102690;1292;62628;-80
2024/02/22 03:54:07;;;;;;;;;;;;;;;18.40;34.41;101333.49;102750;1289;61457;-80
2024/02/22 03:56:34;;;;;;;;;;;;;;;18.40;34.31;101329.39;102875;1294;62524;-81
2024/02/22 03:59:00;;;;;;;;;;;;;;;18.40;34.34;101327.98;102838;1294;61461;-80
2024/02/22 04:01:26;;;;;;;;;;;;;;;18.40;34.31;101325.47;102746;1294;61365;-79
2024/02/22 04:03:52;;;;;;;;;;;;;;;18.40;34.37;101322.79;102705;1290;61307;-80
2024/02/22 04:06:17;;;;;;;;;;;;;;;18.40;34.35;101324.61;102975;1294;61420;-79
2024/02/22 04:08:43;;;;;;;;;;;;;;;18.39;34.36;101317.86;102624;1290;61756;-82
2024/02/22 04:11:08;;;;;;;;;;;;;;;18.39;34.35;101314.86;102295;1291;680413;-80
2024/02/22 04:13:37;;;;;;;;;;;;;;;18.39;34.28;101312.36;102829;1294;62651;-81
2024/02/22 04:16:02;;;;;;;;;;;;;;;18.38;34.31;101312.73;102881;1291;61307;-82
2024/02/22 04:18:28;;;;;;;;;;;;;;;18.38;34.40;101311.71;102763;1290;61773;-80
2024/02/22 04:20:53;;;;;;;;;;;;;;;18.38;34.32;101312.91;102711;1289;61350;-80
2024/02/22 04:23:20;;;;;;;;;;;;;;;18.39;34.32;101312.02;102718;1292;62559;-81
2024/02/22 04:25:46;;;;;;;;;;;;;;;18.38;34.30;101307.06;102881;1292;62415;-79
2024/02/22 04:28:15;;;;;;;;;;;;;;;18.37;34.26;101303.35;102957;1294;61302;-83
2024/02/22 04:30:40;;;;;;;;;;;;;;;18.38;34.21;101304.92;102746;1294;62649;-80
2024/02/22 04:33:06;;;;;;;;;;;;;;;18.37;34.23;101307.09;102836;1289;61328;-80
2024/02/22 04:35:32;;;;;;;;;;;;;;;18.38;34.38;101307.25;102938;1294;61440;-81
2024/02/22 04:37:57;;;;;;;;;;;;;;;18.37;34.28;101307.27;102727;1291;61450;-80
2024/02/22 04:40:23;;;;;;;;;;;;;;;18.37;34.39;101308.02;102942;1291;61385;-80
2024/02/22 04:42:48;;;;;;;;;;;;;;;18.37;34.32;101313.54;102836;1292;62051;-81
2024/02/22 04:45:14;;;;;;;;;;;;;;;18.37;34.40;101311.05;102805;1291;61486;-79
2024/02/22 04:47:40;;;;;;;;;;;;;;;18.37;34.26;101308.91;102796;1294;61445;-80
2024/02/22 04:50:06;;;;;;;;;;;;;;;18.37;34.19;101311.95;102702;1291;61318;-80
2024/02/22 04:52:32;;;;;;;;;;;;;;;18.36;34.19;101315.52;102882;1294;62077;-82
2024/02/22 04:54:59;;;;;;;;;;;;;;;18.36;34.34;101319.46;103025;1293;62278;-80
2024/02/22 04:57:26;;;;;;;;;;;;;;;18.36;34.20;101323.93;102759;1291;61421;-80
2024/02/22 04:59:51;;;;;;;;;;;;;;;18.36;34.17;101323.75;102909;1290;61330;-80
2024/02/22 05:02:17;;;;;;;;;;;;;;;18.36;34.19;101316.45;102834;1291;61529;-80
2024/02/22 05:04:43;;;;;;;;;;;;;;;18.36;34.28;101320.73;102706;1291;72703;-81
2024/02/22 05:07:08;;;;;;;;;;;;;;;18.35;34.15;101326.45;102648;1290;61443;-80
2024/02/22 05:09:34;;;;;;;;;;;;;;;18.35;34.19;101330.92;102747;1294;61834;-79
2024/02/22 05:11:59;;;;;;;;;;;;;;;18.35;34.21;101331.65;102911;1291;62440;-80
2024/02/22 05:14:25;;;;;;;;;;;;;;;18.35;34.15;101336.99;103130;1291;61433;-80
2024/02/22 05:16:50;;;;;;;;;;;;;;;18.35;34.20;101336.45;102954;1296;73087;-80
2024/02/22 05:19:16;;;;;;;;;;;;;;;18.34;34.18;101342.54;103248;1294;61410;-79
2024/02/22 05:21:42;;;;;;;;;;;;;;;18.34;34.26;101344.50;103039;1290;61413;-79
2024/02/22 05:24:10;;;;;;;;;;;;;;;18.34;34.25;101345.39;102941;1292;62087;-78
2024/02/22 05:26:35;;;;;;;;;;;;;;;18.34;34.07;101346.29;102825;1295;61417;-80
2024/02/22 05:29:01;;;;;;;;;;;;;;;18.35;34.16;101346.26;102721;1292;61447;-81
2024/02/22 05:31:28;;;;;;;;;;;;;;;18.34;34.12;101341.46;102810;1291;61409;-80
2024/02/22 05:33:54;;;;;;;;;;;;;;;18.34;34.23;101342.00;102654;1295;61561;-82
2024/02/22 05:36:20;;;;;;;;;;;;;;;18.34;34.10;101344.16;102777;1295;62621;-79
2024/02/22 05:38:46;;;;;;;;;;;;;;;18.33;34.18;101344.92;102680;1289;62022;-80
2024/02/22 05:41:12;;;;;;;;;;;;;;;18.33;33.99;101342.08;102864;1291;61416;-80
2024/02/22 05:43:41;;;;;;;;;;;;;;;18.32;34.11;101344.41;102691;1294;61347;-80
2024/02/22 05:46:07;;;;;;;;;;;;;;;18.32;34.05;101349.79;102637;1291;61372;-79
2024/02/22 05:48:35;;;;;;;;;;;;;;;18.32;34.13;101350.31;102860;1290;72409;-80
2024/02/22 05:51:00;;;;;;;;;;;;;;;18.32;34.05;101355.50;102640;1292;62165;-81
2024/02/22 05:53:26;;;;;;;;;;;;;;;18.31;34.03;101353.92;102917;1289;61442;-81
2024/02/22 05:55:51;;;;;;;;;;;;;;;18.31;34.08;101360.16;102616;1297;61396;-81
2024/02/22 05:58:17;;;;;;;;;;;;;;;18.31;34.03;101353.60;102692;1289;61968;-78
2024/02/22 06:00:43;;;;;;;;;;;;;;;18.31;34.04;101359.48;102865;1290;72759;-80
2024/02/22 06:03:09;;;;;;;;;;;;;;;18.30;34.03;101363.05;102914;1290;61865;-81
2024/02/22 06:05:35;;;;;;;;;;;;;;;18.30;33.99;101363.77;102640;1297;61427;-83
2024/02/22 06:08:00;;;;;;;;;;;;;;;18.30;34.01;101359.70;102741;1289;62372;-80
2024/02/22 06:10:27;;;;;;;;;;;;;;;18.30;33.96;101360.04;103071;1294;61430;-81
2024/02/22 06:12:53;;;;;;;;;;;;;;;18.29;33.95;101358.99;102669;1291;61401;-81
2024/02/22 06:15:20;;;;;;;;;;;;;;;18.29;33.97;101361.70;102842;1290;61774;-81
2024/02/22 06:17:45;;;;;;;;;;;;;;;18.29;33.94;101359.59;102969;1290;61407;-80
2024/02/22 06:20:11;;;;;;;;;;;;;;;18.29;33.94;101363.14;102556;1294;62126;-80
2024/02/22 06:22:37;;;;;;;;;;;;;;;18.29;33.93;101366.70;102601;1294;72383;-81
2024/02/22 06:25:02;;;;;;;;;;;;;;;18.28;34.01;101365.48;102402;1294;61432;-79
2024/02/22 06:27:28;;;;;;;;;;;;;;;18.28;34.16;101366.75;102449;1294;61421;-80
2024/02/22 06:29:54;;;;;;;;;;;;;;;18.28;34.03;101365.48;102617;1294;61679;-83
2024/02/22 06:32:21;;;;;;;;;;;;;;;18.27;34.05;101361.23;102611;1299;62242;-81
2024/02/22 06:34:47;;;;;;;;;;;;;;;18.27;34.11;101358.95;102447;1295;62229;-79
2024/02/22 06:37:13;;;;;;;;;;;;;;;18.27;34.10;101363.03;102565;1294;61408;-80
2024/02/22 06:39:39;;;;;;;;;;;;;;;18.27;34.08;101361.45;102519;1299;61476;-79
2024/02/22 06:42:05;;;;;;;;;;;;;;;18.26;34.11;101361.64;102462;1294;62354;-80
2024/02/22 06:44:30;;;;;;;;;;;;;;;18.26;34.19;101364.16;102302;1294;61437;-81
2024/02/22 06:46:56;;;;;;;;;;;;;;;18.25;34.17;101360.09;102591;1295;62917;-80
2024/02/22 06:49:22;;;;;;;;;;;;;;;18.25;34.34;101361.14;102472;1295;62244;-82
2024/02/22 06:51:47;;;;;;;;;;;;;;;18.25;34.34;101357.26;102715;1294;61390;-80
2024/02/22 06:54:13;;;;;;;;;;;;;;;18.24;34.43;101360.84;102884;1291;62149;-83
2024/02/22 06:56:40;;;;;;;;;;;;;;;18.24;34.39;101357.66;102962;1291;72539;-80
2024/02/22 06:59:06;;;;;;;;;;;;;;;18.23;34.47;101354.13;102913;1290;73452;-80
2024/02/22 07:01:33;;;;;;;;;;;;;;;18.24;34.34;101353.74;103081;1291;62672;-81
2024/02/22 07:03:59;;;;;;;;;;;;;;;18.23;34.52;101348.96;103104;1291;61264;-81
2024/02/22 07:06:26;;;;;;;;;;;;;;;18.24;34.47;101354.45;103013;1291;61407;-80
2024/02/22 07:08:54;;;;;;;;;;;;;;;18.24;34.51;101358.34;102682;1291;61422;-81
2024/02/22 07:11:19;;;;;;;;;;;;;;;18.25;34.54;101357.29;102923;1294;61411;-80
2024/02/22 07:13:45;;;;;;;;;;;;;;;18.25;34.50;101356.89;103129;1291;62640;-80
2024/02/22 07:16:10;;;;;;;;;;;;;;;18.25;34.50;101358.30;102996;1294;61384;-81
2024/02/22 07:18:36;;;;;;;;;;;;;;;18.25;34.46;101366.15;102951;1291;62585;-80
2024/02/22 07:21:03;;;;;;;;;;;;;;;18.25;34.50;101366.48;102943;1292;61844;-80
2024/02/22 07:23:30;;;;;;;;;;;;;;;18.25;34.38;101369.88;102787;1290;61360;-80
2024/02/22 07:25:56;;;;;;;;;;;;;;;18.25;34.36;101370.05;102703;1290;61311;-79
2024/02/22 07:28:24;;;;;;;;;;;;;;;18.25;34.43;101367.94;103118;1289;61497;-80
2024/02/22 07:30:49;;;;;;;;;;;;;;;18.25;34.53;101365.94;102808;1291;62318;-79
2024/02/22 07:33:16;;;;;;;;;;;;;;;18.25;34.45;101367.38;102989;1289;61354;-81
2024/02/22 07:35:42;;;;;;;;;;;;;;;18.25;34.46;101363.14;103157;1294;61410;-81
2024/02/22 07:38:08;;;;;;;;;;;;;;;18.25;34.59;101359.91;102745;1291;61333;-79
2024/02/22 07:40:33;;;;;;;;;;;;;;;18.25;34.63;101359.23;102676;1292;61487;-80
2024/02/22 07:42:59;;;;;;;;;;;;;;;18.24;34.60;101360.14;102966;1294;61327;-80
2024/02/22 07:45:28;;;;;;;;;;;;;;;18.24;34.84;101354.27;102855;1292;62363;-80
2024/02/22 07:47:55;;;;;;;;;;;;;;;18.24;34.84;101353.02;102976;1294;61343;-80
2024/02/22 07:50:21;;;;;;;;;;;;;;;18.24;34.91;101352.33;102956;1294;72487;-82
2024/02/22 07:52:46;;;;;;;;;;;;;;;18.23;34.94;101347.89;102776;1291;61706;-79
2024/02/22 07:55:13;;;;;;;;;;;;;;;18.24;35.02;101349.48;102721;1291;61394;-80
2024/02/22 07:57:41;;;;;;;;;;;;;;;18.25;34.95;101351.04;102807;1289;61404;-80
2024/02/22 08:00:07;;;;;;;;;;;;;;;18.25;35.00;101350.14;102875;1291;73574;-81
2024/02/22 08:02:33;;;;;;;;;;;;;;;18.25;34.96;101347.62;102962;1291;61483;-81
2024/02/22 08:04:59;;;;;;;;;;;;;;;18.25;35.04;101343.55;103089;1289;61435;-81
2024/02/22 08:07:24;;;;;;;;;;;;;;;18.25;35.08;101339.62;102984;1291;61474;-80
2024/02/22 08:09:50;;;;;;;;;;;;;;;18.24;35.09;101339.84;103144;1291;61494;-80
2024/02/22 08:12:16;;;;;;;;;;;;;;;18.25;35.06;101339.80;102879;1291;61340;-80
2024/02/22 08:14:41;;;;;;;;;;;;;;;18.25;35.14;101342.09;102799;1291;62583;-82
2024/02/22 08:17:07;;;;;;;;;;;;;;;18.25;35.10;101338.17;102775;1291;61440;-80
2024/02/22 08:19:32;;;;;;;;;;;;;;;18.25;35.26;101338.53;102871;1291;61478;-79
2024/02/22 08:21:58;;;;;;;;;;;;;;;18.25;35.16;101337.27;102829;1295;61398;-80
2024/02/22 08:24:23;;;;;;;;;;;;;;;18.26;35.21;101340.11;102881;1291;61456;-82
2024/02/22 08:26:49;;;;;;;;;;;;;;;18.25;35.24;101339.59;102756;1291;73506;-80
2024/02/22 08:29:16;;;;;;;;;;;;;;;18.26;35.25;101337.27;102801;1291;62434;-81
2024/02/22 08:31:42;;;;;;;;;;;;;;;18.26;35.32;101338.49;102929;1291;62665;-80
2024/02/22 08:34:08;;;;;;;;;;;;;;;18.26;35.21;101339.58;102803;1291;61420;-79
2024/02/22 08:36:33;;;;;;;;;;;;;;;18.26;35.04;101344.55;103439;1290;63413;-79
2024/02/22 08:38:59;;;;;;;;;;;;;;;18.26;35.18;101344.73;103206;1291;61461;-79
2024/02/22 08:41:25;;;;;;;;;;;;;;;18.27;35.15;101348.06;103285;1291;61438;-80
2024/02/22 08:43:51;;;;;;;;;;;;;;;18.27;35.26;101349.48;103460;1291;61306;-80
2024/02/22 08:46:17;;;;;;;;;;;;;;;18.28;35.29;101354.45;103210;1291;61320;-79
2024/02/22 08:48:43;;;;;;;;;;;;;;;18.29;35.22;101351.55;102878;1291;61478;-79
2024/02/22 08:51:11;;;;;;;;;;;;;;;18.29;35.26;101347.10;102768;1291;62355;-81
2024/02/22 08:53:38;;;;;;;;;;;;;;;18.29;35.26;101342.98;102872;1291;62579;-80
2024/02/22 08:56:08;;;;;;;;;;;;;;;18.29;35.32;101345.10;102837;1291;71944;-80
2024/02/22 08:58:34;;;;;;;;;;;;;;;18.30;35.22;101344.38;102742;1291;75459;-81
2024/02/22 09:01:00;;;;;;;;;;;;;;;18.30;35.29;101342.23;103057;1292;61456;-79
2024/02/22 09:03:29;;;;;;;;;;;;;;;18.31;35.18;101339.70;102892;1291;61366;-80
2024/02/22 09:05:54;;;;;;;;;;;;;;;18.30;35.28;101337.41;102763;1291;73350;-80
2024/02/22 09:08:21;;;;;;;;;;;;;;;18.31;35.28;101336.13;102977;1291;62489;-80
2024/02/22 09:10:48;;;;;;;;;;;;;;;18.30;35.29;101339.54;102896;1291;61652;-80
2024/02/22 09:13:14;;;;;;;;;;;;;;;18.31;35.24;101338.46;103140;1291;61397;-81
2024/02/22 09:15:39;;;;;;;;;;;;;;;18.31;35.35;101334.18;102888;1291;61424;-80
2024/02/22 09:18:09;;;;;;;;;;;;;;;18.31;35.29;101332.93;102905;1290;73617;-80
2024/02/22 09:20:35;;;;;;;;;;;;;;;18.30;35.19;101326.91;103085;1295;61413;-80
2024/02/22 09:23:00;;;;;;;;;;;;;;;18.30;35.26;101325.32;102930;1291;62299;-80
2024/02/22 09:25:26;;;;;;;;;;;;;;;18.29;35.23;101322.66;102894;1290;62000;-80
2024/02/22 09:27:52;;;;;;;;;;;;;;;18.29;35.32;101322.36;102892;1291;61387;-80
2024/02/22 09:30:17;;;;;;;;;;;;;;;18.29;35.20;101319.33;102885;1291;61330;-80
2024/02/22 09:32:43;;;;;;;;;;;;;;;18.28;35.13;101318.61;102828;1289;61437;-81
2024/02/22 09:35:09;;;;;;;;;;;;;;;18.28;35.14;101317.56;102930;1291;61408;-80
2024/02/22 09:37:35;;;;;;;;;;;;;;;18.27;35.16;101314.23;102921;1289;62434;-79
2024/02/22 09:40:00;;;;;;;;;;;;;;;18.27;35.07;101307.63;102972;1290;61715;-79
2024/02/22 09:42:26;;;;;;;;;;;;;;;18.28;35.13;101303.13;102883;1289;61609;-81
2024/02/22 09:44:55;;;;;;;;;;;;;;;18.28;35.11;101296.73;103042;1291;61421;-81
2024/02/22 09:47:21;;;;;;;;;;;;;;;18.28;35.19;101291.70;102666;1292;61768;-80
2024/02/22 09:49:46;;;;;;;;;;;;;;;18.29;35.18;101292.39;102921;1294;61830;-79
2024/02/22 09:52:14;;;;;;;;;;;;;;;18.29;35.09;101291.69;102806;1291;63010;-79
2024/02/22 09:54:41;;;;;;;;;;;;;;;18.29;34.98;101288.29;102896;1291;61443;-80
2024/02/22 09:57:07;;;;;;;;;;;;;;;18.29;35.08;101282.08;103076;1291;61394;-81
2024/02/22 09:59:34;;;;;;;;;;;;;;;18.29;35.08;101280.46;102857;1294;71546;-80
2024/02/22 10:02:05;;;;;;;;;;;;;;;18.29;35.06;101275.30;103055;1294;62666;-80
2024/02/22 10:04:31;;;;;;;;;;;;;;;18.28;35.05;101272.28;103314;1296;61417;-80
2024/02/22 10:07:00;;;;;;;;;;;;;;;18.28;35.07;101266.58;103351;1291;62425;-80
2024/02/22 10:09:27;;;;;;;;;;;;;;;18.29;35.05;101260.15;103312;1289;73225;-80
2024/02/22 10:11:53;;;;;;;;;;;;;;;18.29;35.00;101254.09;103025;1295;61421;-80
2024/02/22 10:14:19;;;;;;;;;;;;;;;18.29;34.92;101252.14;102981;1292;62381;-81
2024/02/22 10:16:45;;;;;;;;;;;;;;;18.30;34.97;101249.60;102894;1297;61390;-79
2024/02/22 10:19:12;;;;;;;;;;;;;;;18.30;34.92;101248.66;103782;1290;61306;-79
2024/02/22 10:21:38;;;;;;;;;;;;;;;18.31;34.93;101241.52;103418;1291;61392;-80
2024/02/22 10:24:04;;;;;;;;;;;;;;;18.31;34.91;101238.83;102702;1290;61414;-80
2024/02/22 10:26:30;;;;;;;;;;;;;;;18.32;34.84;101231.84;103406;1291;61309;-79
2024/02/22 10:29:08;;;;;;;;;;;;;;;18.33;34.87;101229.85;103095;1292;61421;-80
2024/02/22 10:31:40;;;;;;;;;;;;;;;18.33;34.82;101232.30;103169;1293;74513;-79
2024/02/22 10:34:06;;;;;;;;;;;;;;;18.33;34.73;101228.02;103250;1291;62889;-79
2024/02/22 10:36:32;;;;;;;;;;;;;;;18.34;34.86;101224.77;103154;1291;61408;-80
2024/02/22 10:38:57;;;;;;;;;;;;;;;18.35;34.73;101217.39;103204;1291;62253;-80
2024/02/22 10:41:23;;;;;;;;;;;;;;;18.38;34.70;101212.45;103013;1291;61439;-78
2024/02/22 10:43:50;;;;;;;;;;;;;;;18.39;34.73;101201.84;102922;1291;61408;-80
2024/02/22 10:46:16;;;;;;;;;;;;;;;18.41;34.73;101199.95;102979;1289;61398;-79
2024/02/22 10:48:44;;;;;;;;;;;;;;;18.44;34.71;101195.55;103123;1291;62924;-81
2024/02/22 10:51:10;;;;;;;;;;;;;;;18.45;34.72;101191.20;102973;1291;72548;-79
2024/02/22 10:53:39;;;;;;;;;;;;;;;18.47;34.63;101191.50;102939;1290;61468;-79
2024/02/22 10:56:05;;;;;;;;;;;;;;;18.48;34.56;101187.33;102884;1290;61325;-81
2024/02/22 10:58:33;;;;;;;;;;;;;;;18.48;34.55;101187.46;103214;1291;61871;-79
2024/02/22 11:00:59;;;;;;;;;;;;;;;18.49;34.43;101179.92;102919;1294;74004;-80
2024/02/22 11:03:25;;;;;;;;;;;;;;;18.49;34.56;101173.52;103196;1289;61390;-80
2024/02/22 11:05:51;;;;;;;;;;;;;;;18.50;34.42;101168.70;103014;1291;61442;-79
2024/02/22 11:08:23;;;;;;;;;;;;;;;18.49;34.42;101164.24;103044;1291;61615;-79
2024/02/22 11:11:07;;;;;;;;;;;;;;;18.50;34.45;101159.77;103095;1291;73476;-79
2024/02/22 11:13:33;;;;;;;;;;;;;;;18.50;34.44;101158.52;103476;1291;75457;-79
2024/02/22 11:15:59;;;;;;;;;;;;;;;18.50;34.39;101150.66;103512;1291;61411;-80
2024/02/22 11:18:25;;;;;;;;;;;;;;;18.50;34.43;101145.69;102994;1291;61375;-81
2024/02/22 11:20:50;;;;;;;;;;;;;;;18.50;34.43;101140.67;102891;1291;61409;-80
2024/02/22 11:23:17;;;;;;;;;;;;;;;18.50;34.42;101143.52;103233;1290;62870;-79
2024/02/22 11:25:43;;;;;;;;;;;;;;;18.50;34.42;101142.66;103387;1291;61404;-79
2024/02/22 11:28:09;;;;;;;;;;;;;;;18.50;34.36;101139.45;103069;1291;61849;-80
2024/02/22 11:30:35;;;;;;;;;;;;;;;18.50;34.33;101135.35;102785;1291;61470;-81
2024/02/22 11:33:03;;;;;;;;;;;;;;;18.50;34.40;101136.42;102830;1291;72351;-81
2024/02/22 11:35:28;;;;;;;;;;;;;;;18.49;34.27;101132.70;102753;1293;74335;-79
2024/02/22 11:38:00;;;;;;;;;;;;;;;18.49;34.31;101129.15;102734;1291;61884;-83
2024/02/22 11:40:30;;;;;;;;;;;;;;;18.48;34.22;101125.60;102691;1291;61376;-81
2024/02/22 11:42:58;;;;;;;;;;;;;;;18.48;34.32;101114.05;102700;1296;73194;-82
2024/02/22 11:45:24;;;;;;;;;;;;;;;18.48;34.32;101112.30;102700;1294;74412;-82
2024/02/22 11:47:50;;;;;;;;;;;;;;;18.47;34.29;101119.83;102631;1291;61489;-81
2024/02/22 11:50:15;;;;;;;;;;;;;;;18.46;34.23;101115.76;102685;1292;61363;-81
2024/02/22 11:52:41;;;;;;;;;;;;;;;18.46;34.14;101108.65;102621;1291;61376;-80
2024/02/22 11:55:10;;;;;;;;;;;;;;;18.46;34.17;101104.92;102681;1291;61321;-79
2024/02/22 11:57:35;;;;;;;;;;;;;;;18.46;34.23;101104.21;102735;1291;61916;-81
2024/02/22 12:00:04;;;;;;;;;;;;;;;18.45;34.25;101102.81;102723;1291;61405;-80
2024/02/22 12:02:31;;;;;;;;;;;;;;;18.45;34.17;101098.20;102796;1291;72579;-79
2024/02/22 12:04:57;;;;;;;;;;;;;;;18.46;34.25;101097.27;102632;1291;74501;-81
2024/02/22 12:07:23;;;;;;;;;;;;;;;18.45;34.24;101095.69;102764;1291;61378;-80
2024/02/22 12:09:49;;;;;;;;;;;;;;;18.45;34.14;101082.49;102766;1291;61384;-80
2024/02/22 12:12:14;;;;;;;;;;;;;;;18.45;33.98;101081.77;102687;1291;62350;-80
2024/02/22 12:14:40;;;;;;;;;;;;;;;18.45;34.22;101076.08;102793;1294;61341;-80
2024/02/22 12:17:12;;;;;;;;;;;;;;;18.45;34.13;101075.00;102715;1291;62376;-81
2024/02/22 12:19:37;;;;;;;;;;;;;;;18.45;34.15;101079.27;102711;1291;61385;-81
2024/02/22 12:22:07;;;;;;;;;;;;;;;18.46;34.23;101074.63;102839;1292;61304;-80